Terminal Aerodrome Forecast
Issued by NWS Jackson, MS

Home | Current Version | Previous Version | Text Only | Print | Product List | Glossary On
Versions: 1 2 3 4 5 6 7 8 9 10 11 12 13 14 15
141
FTUS44 KMEG 271251 AAA
TAFTUP
TAF AMD
KTUP 271251Z 2713/2812 VRB03KT 6SM BR SCT002
     FM271400 14003KT P6SM SCT010
     FM271800 12007KT P6SM VCTS SCT040CB BKN250
     FM280100 08003KT P6SM FEW250
      TEMPO 2810/2812 3SM BR=

USA.gov is the U.S. government's official web portal to all federal, state and local government web resources and services.